• Join FlightAware (Why Join?)
  • Login
  • US Flag 
11:20PM EDT


 

Airport Tracker/Info


-or-


 

Live Flight TrackerFlight Track Log ✈ DAL268 ✈ 20-Aug-2013 ✈ KJFK - LLBG / TLV

Flight Track Log - Related Links

Times and Time Zones

All times are in EDT time to prevent confusion due to time zone crossing. See the DAL268 flight status page for this flight to view local times or setup timezone preferences in your user account.

Time Position Orientation Groundspeed Altitude Reporting Facility
EDT Latitude Longitude Course Direction KTS MPH feet Rate Location/Type
12:40AM 40.6370 -73.7800 261° West  Level FlightAware
01:01AM 40.6390 -73.7720 208° Southwest 115 132  Level FlightAware
01:02AM 40.6280 -73.7810 212° Southwest 175 201 780 Level FlightAware
01:02AM 40.6100 -73.7940 209° Southwest 182 209 600 1,620 Climbing FlightAware
01:02AM 40.5930 -73.8060 208° Southwest 188 216 1,200 1,320 Climbing FlightAware
01:03AM 40.5770 -73.8140 201° Southwest 208 239 1,500 1,020 Climbing FlightAware
01:03AM 40.5630 -73.8240 208° Southwest 229 264 1,800 1,140 Climbing FlightAware
01:03AM 40.5430 -73.8390 210° Southwest 246 283 2,200 1,140 Climbing FlightAware
01:04AM 40.5220 -73.8530 207° Southwest 264 304 2,600 1,440 Climbing FlightAware
01:04AM 40.4950 -73.8620 194° South 285 328 3,200 2,100 Climbing FlightAware
01:04AM 40.4802 -73.8625 181° South 288 331 3,700 2,580 Climbing FlightAware ADS-B
01:04AM 40.4733 -73.8613 172° South 293 337 3,900 2,220 Climbing FlightAware ADS-B
01:04AM 40.4691 -73.8601 168° South 296 341 4,000 1,680 Climbing FlightAware ADS-B
01:04AM 40.4649 -73.8584 163° South 299 344 4,100 1,680 Climbing FlightAware ADS-B
01:04AM 40.4610 -73.8562 157° South 301 346 4,200 3,000 Climbing FlightAware ADS-B
01:04AM 40.4572 -73.8525 143° Southeast 302 348 4,400 3,000 Climbing FlightAware ADS-B
01:05AM 40.4517 -73.8470 143° Southeast 300 345 4,600 2,220 Climbing FlightAware ADS-B
01:05AM 40.4483 -73.8433 140° Southeast 301 346 4,700 1,680 Climbing FlightAware ADS-B
01:05AM 40.4452 -73.8391 134° Southeast 303 349 4,800 2,220 Climbing FlightAware ADS-B
01:05AM 40.4419 -73.8316 120° Southeast 304 350 5,000 2,520 Climbing FlightAware ADS-B
01:05AM 40.4398 -73.8283 130° Southeast 305 351 5,100 3,000 Climbing FlightAware ADS-B
01:05AM 40.4376 -73.8216 113° Southeast 307 353 5,300 2,520 Climbing FlightAware ADS-B
01:05AM 40.4362 -73.8163 109° East 308 354 5,400 2,520 Climbing FlightAware ADS-B
01:05AM 40.4350 -73.8109 106° East 309 356 5,600 3,000 Climbing FlightAware ADS-B
01:05AM 40.4342 -73.8035 98° East 310 357 5,700 2,520 Climbing FlightAware ADS-B
01:05AM 40.4339 -73.7979 94° East 311 358 5,900 2,520 Climbing FlightAware ADS-B
01:05AM 40.4340 -73.7922 89° East 311 358 6,000 1,980 Climbing FlightAware ADS-B
01:05AM 40.4346 -73.7848 84° East 312 359 6,100 2,520 Climbing FlightAware ADS-B
01:05AM 40.4356 -73.7773 80° East 312 359 6,300 2,820 Climbing FlightAware ADS-B
01:06AM 40.4404 -73.7496 77° East 313 360 7,000 2,700 Climbing FlightAware ADS-B
01:06AM 40.4459 -73.7197 76° East 317 365 7,700 2,400 Climbing FlightAware ADS-B
01:06AM 40.4513 -73.6898 77° East 318 366 8,300 2,400 Climbing FlightAware ADS-B
01:06AM 40.4565 -73.6593 77° East 321 369 9,000 2,580 Climbing FlightAware ADS-B
01:07AM 40.4614 -73.6306 77° East 322 371 9,700 2,160 Climbing FlightAware ADS-B
01:07AM 40.4713 -73.5704 78° East 335 386 10,700 1,200 Climbing FlightAware ADS-B
01:07AM 40.4789 -73.5225 78° East 364 419 10,800 120 Climbing FlightAware ADS-B
01:08AM 40.4810 -73.4974 84° East 384 442 10,800  Level FlightAware ADS-B
01:08AM 40.4804 -73.4735 92° East 397 457 10,800 420 Level FlightAware ADS-B
01:08AM 40.4724 -73.4000 98° East 410 472 11,100 900 Climbing FlightAware ADS-B
01:08AM 40.4707 -73.3776 96° East 412 474 11,400 2,280 Climbing FlightAware ADS-B
01:09AM 40.4736 -73.3224 86° East 417 480 12,300 2,160 Climbing FlightAware ADS-B
01:09AM 40.4801 -73.2879 76° East 422 486 12,700 2,040 Climbing FlightAware ADS-B
01:10AM 40.5015 -73.2240 66° East 428 493 13,700 2,160 Climbing FlightAware ADS-B
01:10AM 40.5273 -73.1501 65° Northeast 434 499 14,800 2,040 Climbing FlightAware ADS-B
01:11AM 40.5600 -73.0580 65° Northeast 442 509 16,100 1,920 Climbing FlightAware ADS-B
01:11AM 40.5921 -72.9576 67° East 452 520 17,300 1,800 Climbing FlightAware ADS-B
01:12AM 40.6167 -72.8779 68° East 458 527 18,300 1,800 Climbing FlightAware ADS-B
01:12AM 40.6423 -72.7945 68° East 466 536 19,200 1,620 Climbing FlightAware ADS-B
01:13AM 40.6673 -72.7154 67° East 470 541 20,000 1,680 Climbing FlightAware ADS-B
01:13AM 40.6949 -72.6276 67° East 474 545 21,000 1,740 Climbing FlightAware ADS-B
01:14AM 40.7201 -72.5446 68° East 476 548 21,900 1,800 Climbing FlightAware ADS-B
01:14AM 40.7457 -72.4639 67° East 477 549 22,800 1,620 Climbing FlightAware ADS-B
01:15AM 40.7711 -72.3801 68° East 480 552 23,600 1,440 Climbing FlightAware ADS-B
01:15AM 40.7966 -72.2987 67° East 483 556 24,300 1,260 Climbing FlightAware ADS-B
01:16AM 40.8227 -72.2137 68° East 489 563 24,900 1,140 Climbing FlightAware ADS-B
01:17AM 40.8497 -72.1245 68° East 493 567 25,500 1,020 Climbing FlightAware ADS-B
01:17AM 40.8762 -72.0373 68° East 499 574 26,000 1,020 Climbing FlightAware ADS-B
01:18AM 40.9027 -71.9518 68° East 504 580 26,600 1,080 Climbing FlightAware ADS-B
01:18AM 40.9289 -71.8658 68° East 509 586 27,100 1,080 Climbing FlightAware ADS-B
01:19AM 40.9565 -71.7731 68° East 510 587 27,700 1,500 Climbing FlightAware ADS-B
01:19AM 40.9903 -71.6609 68° East 505 581 28,900 2,340 Climbing FlightAware ADS-B
01:20AM 41.0164 -71.5728 69° East 478 550 30,500 2,040 Climbing FlightAware ADS-B
01:20AM 41.0408 -71.4918 68° East 478 550 31,000 360 Climbing FlightAware ADS-B
01:21AM 41.0671 -71.4041 68° East 483 556 30,900 -120 Descending FlightAware ADS-B
01:21AM 41.0936 -71.3133 69° East 483 556 30,900  Level FlightAware ADS-B
01:22AM 41.1180 -71.2310 68° East 483 556 30,900  Level FlightAware
01:22AM 41.1297 -71.1918 68° East 483 556 30,900  Level FlightAware ADS-B
01:23AM 41.1667 -71.0651 69° East 483 556 30,900  Level FlightAware ADS-B
01:24AM 41.2030 -70.9410 69° East 480 552 30,900  Level FlightAware
01:24AM 41.2126 -70.9078 69° East 482 555 30,900  Level FlightAware ADS-B
01:25AM 41.2430 -70.8020 69° East 479 551 30,900  Level FlightAware
01:25AM 41.2700 -70.7120 68° East 479 551 30,900  Level FlightAware
01:26AM 41.3080 -70.5770 69° East 478 550 30,900  Level FlightAware
01:27AM 41.3310 -70.4920 70° East 478 550 30,900  Level FlightAware
01:27AM 41.3540 -70.4080 70° East 478 550 30,900  Level FlightAware
01:28AM 41.3970 -70.2690 68° East 479 551 30,900  Level FlightAware
01:28AM 41.4210 -70.1820 70° East 479 551 30,900  Level FlightAware
01:29AM 41.4440 -70.0970 70° East 479 551 30,900  Level FlightAware
01:30AM 41.4670 -70.0120 70° East 479 551 30,900  Level FlightAware
01:30AM 41.4900 -69.9270 70° East 479 551 30,900  Level FlightAware
01:31AM 41.5130 -69.8420 70° East 479 551 30,900  Level FlightAware
01:31AM 41.5370 -69.7540 70° East 479 551 30,900  Level FlightAware
01:32AM 41.5600 -69.6690 70° East 479 551 30,900  Level FlightAware
01:33AM 41.5840 -69.5820 70° East 479 551 30,900  Level FlightAware
01:33AM 41.6070 -69.4960 70° East 479 551 30,900  Level FlightAware
01:39AM 41.9160 -68.3730 69° East 480 552 30,900  Level FlightAware
01:40AM 41.9520 -68.2350 71° East 480 552 30,900  Level FlightAware
01:40AM 41.9820 -68.1220 70° East 482 555 30,900  Level FlightAware
01:41AM 42.0060 -68.0290 71° East 480 552 30,900  Level FlightAware
01:42AM 42.0360 -67.9130 71° East 481 554 30,900  Level FlightAware
01:42AM 42.0650 -67.7990 71° East 481 554 30,900  Level FlightAware
01:43AM 42.0910 -67.6990 71° East 480 552 30,900  Level FlightAware
01:44AM 42.1190 -67.5890 71° East 481 554 30,900  Level FlightAware
01:44AM 42.1390 -67.5090 71° East 481 554 30,900  Level FlightAware
01:45AM 42.1700 -67.3830 72° East 481 554 30,900  Level FlightAware
01:46AM 42.2060 -67.2410 71° East 481 554 30,900  Level FlightAware
01:46AM 42.2280 -67.1510 72° East 481 554 30,900  Level FlightAware
01:47AM 42.2500 -67.0610 72° East 481 554 30,900  Level FlightAware
01:48AM 42.2710 -66.9740 72° East 481 554 30,900  Level FlightAware
01:48AM 42.2920 -66.8860 72° East 481 554 30,900  Level FlightAware
01:49AM 42.3130 -66.7990 72° East 481 554 30,900  Level FlightAware
01:49AM 42.3340 -66.7110 70° East 481 554 30,900  Level FlightAware
01:50AM 42.3550 -66.6230 72° East 481 554 30,900  Level FlightAware
01:51AM 42.3760 -66.5360 72° East 481 554 30,900  Level FlightAware
01:51AM 42.3970 -66.4480 72° East 481 554 30,900  Level FlightAware
01:52AM 42.4180 -66.3600 72° East 481 554 30,900  Level FlightAware
01:52AM 42.4390 -66.2730 72° East 481 554 30,900  Level FlightAware
01:53AM 42.4600 -66.1850 72° East 481 554 30,900  Level FlightAware
01:54AM 42.4820 -66.0950 72° East 481 554 30,900  Level FlightAware
01:54AM 42.5030 -66.0070 72° East 481 554 30,900  Level FlightAware
01:55AM 42.5240 -65.9190 72° East 481 554 30,900  Level FlightAware
01:56AM 42.6333 -65.5167 72° East 480 552 30,900  Level Moncton Center
01:57AM 42.6667 -65.3333 76° East 480 552 30,900  Level Moncton Center
01:58AM 42.7167 -65.1667 68° East 490 564 30,900  Level Moncton Center
01:59AM 42.7500 -64.9833 76° East 480 552 30,900  Level Moncton Center
02:05AM 43.0120 -63.9390 76° East 489 563 30,900  Level FlightAware
02:05AM 43.0350 -63.8380 73° East 490 564 30,900  Level FlightAware
02:06AM 43.0560 -63.7440 73° East 489 563 30,900  Level FlightAware
02:06AM 43.0850 -63.6170 73° East 489 563 30,900  Level FlightAware
02:07AM 43.1080 -63.5130 73° East 489 563 30,900  Level FlightAware
02:08AM 43.1330 -63.4010 73° East 489 563 30,900  Level FlightAware
02:09AM 43.1680 -63.2440 73° East 488 562 30,900  Level FlightAware
02:09AM 43.1860 -63.1590 74° East 488 562 30,900  Level FlightAware
02:10AM 43.2130 -63.0370 73° East 487 560 30,900  Level FlightAware
02:10AM 43.2320 -62.9460 74° East 487 560 30,900  Level FlightAware
02:11AM 43.2620 -62.8130 73° East 486 559 30,900  Level FlightAware
02:12AM 43.2910 -62.6740 74° East 486 559 30,900  Level FlightAware
02:12AM 43.3110 -62.5800 74° East 486 559 30,900  Level FlightAware
02:13AM 43.3300 -62.4890 74° East 486 559 30,900  Level FlightAware
02:14AM 43.3490 -62.3980 74° East 486 559 30,900  Level FlightAware
02:14AM 43.3680 -62.3070 74° East 486 559 30,900 720 Level FlightAware
02:15AM 43.4030 -62.1470 73° East 487 560 31,800 720 Climbing FlightAware
02:15AM 43.4230 -62.0510 74° East 487 560 31,800 960 Level FlightAware
02:16AM 43.4420 -61.9600 74° East 485 558 32,900 900 Climbing FlightAware
02:17AM 43.4680 -61.8350 74° East 484 557 32,900  Level FlightAware
02:17AM 43.4930 -61.7140 74° East 482 555 32,900  Level FlightAware
02:18AM 43.5190 -61.5860 74° East 478 550 32,900  Level FlightAware
02:19AM 43.5430 -61.4660 75° East 478 550 32,900  Level FlightAware
02:19AM 43.5620 -61.3760 74° East 478 550 32,900  Level FlightAware
02:20AM 43.5810 -61.2860 74° East 478 550 32,900  Level FlightAware
02:21AM 43.5990 -61.1970 74° East 478 550 32,900  Level FlightAware
02:21AM 43.6190 -61.1040 73° East 478 550 32,900  Level FlightAware
02:22AM 43.6380 -61.0120 74° East 478 550 32,900  Level FlightAware
02:22AM 43.6560 -60.9220 75° East 478 550 32,900  Level FlightAware
02:23AM 43.6750 -60.8320 74° East 478 550 32,900  Level FlightAware
02:24AM 43.6940 -60.7420 74° East 478 550 32,900  Level FlightAware
02:24AM 43.7120 -60.6520 75° East 478 550 32,900  Level FlightAware
02:25AM 43.7310 -60.5620 74° East 478 550 32,900  Level FlightAware
02:25AM 43.7500 -60.4720 74° East 478 550 32,900  Level FlightAware
02:26AM 43.7690 -60.3800 74° East 478 550 32,900  Level FlightAware
02:27AM 43.7870 -60.2890 75° East 478 550 32,900  Level FlightAware
02:27AM 43.8060 -60.1990 74° East 478 550 32,900  Level FlightAware
02:28AM 43.8250 -60.1090 74° East 478 550 32,900  Level FlightAware
02:33AM 44.0070 -59.0230 77° East 475 547 32,900  Level FlightAware
02:33AM 44.0230 -58.9330 76° East 475 547 32,900  Level FlightAware
02:34AM 44.0390 -58.8430 76° East 475 547 32,900  Level FlightAware
02:34AM 44.0550 -58.7520 76° East 475 547 32,900  Level FlightAware
02:35AM 44.0830 -58.5930 76° East 478 550 32,900  Level FlightAware
02:36AM 44.1010 -58.4880 77° East 479 551 32,900  Level FlightAware
02:36AM 44.1180 -58.3930 76° East 479 551 32,900  Level FlightAware
02:37AM 44.1380 -58.2690 77° East 478 550 32,900  Level FlightAware
02:37AM 44.1560 -58.1680 76° East 479 551 32,900  Level FlightAware
02:38AM 44.1750 -58.0530 77° East 479 551 32,900  Level FlightAware
02:39AM 44.1910 -57.9540 77° East 480 552 32,900  Level FlightAware
02:39AM 44.2090 -57.8480 77° East 482 555 32,900  Level FlightAware
02:40AM 44.2260 -57.7480 77° East 482 555 32,900  Level FlightAware
02:40AM 44.2410 -57.6530 78° East 482 555 32,900  Level FlightAware
02:41AM 44.2610 -57.5300 77° East 483 556 32,900  Level FlightAware
02:41AM 44.2770 -57.4350 77° East 483 556 32,900  Level FlightAware
02:42AM 44.2950 -57.3260 77° East 483 556 32,900  Level FlightAware
02:43AM 44.3140 -57.2060 77° East 487 560 32,900  Level FlightAware
02:43AM 44.3310 -57.1000 77° East 487 560 32,900  Level FlightAware
02:44AM 44.3470 -57.0070 76° East 487 560 32,900  Level FlightAware
02:45AM 44.3620 -56.9130 77° East 487 560 32,900  Level FlightAware
02:45AM 44.3780 -56.8190 77° East 487 560 32,900  Level FlightAware
02:46AM 44.3930 -56.7250 77° East 487 560 32,900  Level FlightAware
02:46AM 44.4090 -56.6310 77° East 487 560 32,900  Level FlightAware
02:47AM 44.4240 -56.5360 78° East 487 560 32,900  Level FlightAware
02:48AM 44.4400 -56.4420 77° East 487 560 32,900  Level FlightAware
02:48AM 44.4550 -56.3480 77° East 487 560 32,900  Level FlightAware
02:49AM 44.4710 -56.2540 77° East 487 560 32,900  Level FlightAware
02:49AM 44.4860 -56.1600 77° East 487 560 32,900  Level FlightAware
02:50AM 44.5020 -56.0630 77° East 487 560 32,900  Level FlightAware
02:51AM 44.5180 -55.9690 77° East 487 560 32,900  Level FlightAware
02:51AM 44.5330 -55.8750 77° East 487 560 32,900  Level FlightAware
02:52AM 44.5490 -55.7810 77° East 487 560 32,900  Level FlightAware
02:52AM 44.5640 -55.6860 77° East 487 560 32,900  Level FlightAware
02:53AM 44.5500 -55.1500 77° East 490 564 32,900  Level Gander Center
02:54AM 44.6000 -54.9667 69° East 490 564 32,900  Level Gander Center
02:55AM 44.6000 -54.7667 90° East 490 564 32,900  Level Gander Center
02:56AM 44.6167 -54.5667 83° East 500 575 32,900  Level Gander Center
02:57AM 44.6333 -54.4000 82° East 490 564 32,900  Level Gander Center
02:58AM 44.6667 -54.1833 78° East 490 564 32,900  Level Gander Center
02:59AM 44.6833 -54.0167 82° East 490 564 32,900  Level Gander Center
03:00AM 44.7000 -53.8167 83° East 500 575 32,900  Level Gander Center
03:01AM 44.7000 -53.6000 90° East 510 587 32,900  Level Gander Center
03:02AM 44.7167 -53.4167 83° East 500 575 32,900  Level Gander Center
03:03AM 44.7500 -53.2333 76° East 500 575 32,900  Level Gander Center
03:04AM 44.7667 -53.0333 83° East 500 575 32,900  Level Gander Center
03:05AM 44.7833 -52.8167 84° East 510 587 32,900  Level Gander Center
03:06AM 44.8000 -52.6333 83° East 510 587 32,900  Level Gander Center
03:07AM 44.8167 -52.4333 83° East 510 587 32,900  Level Gander Center
03:08AM 44.8333 -52.2167 84° East 520 598 32,900  Level Gander Center
03:09AM 44.8500 -52.0500 82° East 510 587 32,900  Level Gander Center
03:10AM 44.8667 -51.8333 84° East 510 587 32,900  Level Gander Center
03:11AM 44.8667 -51.6500 90° East 520 598 32,900  Level Gander Center
03:12AM 44.8833 -51.4333 84° East 510 587 32,900  Level Gander Center
03:13AM 44.9000 -51.2500 83° East 520 598 32,900  Level Gander Center
03:14AM 44.9167 -51.0500 83° East 520 598 32,900  Level Gander Center
03:15AM 44.9167 -50.8333 90° East 520 598 32,900  Level Gander Center
03:16AM 44.9333 -50.6500 83° East 520 598 32,900  Level Gander Center
03:17AM 44.9500 -50.4333 84° East 520 598 32,900  Level Gander Center
03:18AM 44.9667 -50.2167 84° East 530 610 32,900  Level Gander Center
03:19AM 44.9667 -50.0167 90° East 530 610 32,900  Level Gander Center
03:21AM 45.0193 -49.8204 71° East  Level Estimated
03:28AM 45.3566 -48.5236 71° East  Level Estimated
03:29AM 45.3986 -48.3347 72° East  Level FlightAware Approximate
03:30AM 45.4402 -48.1456 73° East  Level FlightAware Approximate
03:31AM 45.4816 -47.9561 73° East  Level FlightAware Approximate
03:32AM 45.5226 -47.7664 73° East  Level FlightAware Approximate
03:33AM 45.5684 -47.5787 72° East  Level Estimated
03:34AM 45.6113 -47.3895 72° East  Level FlightAware Approximate
03:35AM 45.6538 -47.2000 72° East  Level FlightAware Approximate
03:36AM 45.6960 -47.0103 72° East  Level FlightAware Approximate
03:37AM 45.7380 -46.8202 72° East  Level FlightAware Approximate
03:38AM 45.7796 -46.6298 73° East  Level FlightAware Approximate
03:39AM 45.8209 -46.4392 73° East  Level FlightAware Approximate
03:40AM 45.8618 -46.2483 73° East  Level FlightAware Approximate
03:41AM 45.9025 -46.0571 73° East  Level FlightAware Approximate
03:42AM 45.9428 -45.8657 73° East  Level FlightAware Approximate
03:43AM 45.9829 -45.6739 73° East  Level FlightAware Approximate
03:44AM 46.0226 -45.4819 73° East  Level FlightAware Approximate
03:45AM 46.0619 -45.2896 73° East  Level FlightAware Approximate
03:46AM 46.1010 -45.0970 74° East  Level FlightAware Approximate
03:47AM 46.1397 -44.9041 74° East  Level FlightAware Approximate
03:48AM 46.1781 -44.7110 74° East  Level FlightAware Approximate
03:49AM 46.2162 -44.5176 74° East  Level FlightAware Approximate
03:50AM 46.2539 -44.3240 74° East  Level FlightAware Approximate
03:51AM 46.2914 -44.1301 74° East  Level FlightAware Approximate
03:52AM 46.3284 -43.9359 74° East  Level FlightAware Approximate
03:53AM 46.3652 -43.7415 75° East  Level FlightAware Approximate
03:54AM 46.4016 -43.5467 75° East  Level FlightAware Approximate
03:55AM 46.4377 -43.3518 75° East  Level FlightAware Approximate
03:56AM 46.4735 -43.1566 75° East  Level FlightAware Approximate
03:57AM 46.5089 -42.9611 75° East  Level FlightAware Approximate
03:58AM 46.5441 -42.7654 75° East  Level FlightAware Approximate
03:59AM 46.5788 -42.5694 75° East  Level FlightAware Approximate
04:00AM 46.6133 -42.3731 76° East  Level FlightAware Approximate
04:01AM 46.6474 -42.1767 76° East  Level FlightAware Approximate
04:02AM 46.6811 -41.9799 76° East  Level FlightAware Approximate
04:03AM 46.7146 -41.7830 76° East  Level FlightAware Approximate
04:04AM 46.7477 -41.5857 76° East  Level FlightAware Approximate
04:05AM 46.7804 -41.3883 76° East  Level FlightAware Approximate
04:06AM 46.8128 -41.1906 76° East  Level FlightAware Approximate
04:07AM 46.8449 -40.9926 77° East  Level FlightAware Approximate
04:08AM 46.8766 -40.7945 77° East  Level FlightAware Approximate
04:09AM 46.9080 -40.5961 77° East  Level FlightAware Approximate
04:10AM 46.9390 -40.3974 77° East  Level FlightAware Approximate
04:11AM 46.9697 -40.1986 77° East  Level FlightAware Approximate
04:12AM 47.0029 -40.0005 70° East  Level Estimated
04:13AM 47.0501 -39.8084 70° East  Level FlightAware Approximate
04:14AM 47.0969 -39.6160 70° East  Level FlightAware Approximate
04:15AM 47.1435 -39.4233 70° East  Level FlightAware Approximate
04:16AM 47.1897 -39.2302 71° East  Level FlightAware Approximate
04:17AM 47.2356 -39.0368 71° East  Level FlightAware Approximate
04:18AM 47.2812 -38.8430 71° East  Level FlightAware Approximate
04:19AM 47.3264 -38.6489 71° East  Level FlightAware Approximate
04:20AM 47.3713 -38.4545 71° East  Level FlightAware Approximate
04:21AM 47.4159 -38.2598 71° East  Level FlightAware Approximate
04:22AM 47.4455 -38.0588 71° East  Level Estimated
04:23AM 47.4925 -37.8650 70° East  Level FlightAware Approximate
04:24AM 47.5392 -37.6709 70° East  Level FlightAware Approximate
04:25AM 47.5856 -37.4765 70° East  Level FlightAware Approximate
04:26AM 47.6317 -37.2817 71° East  Level FlightAware Approximate
04:27AM 47.6774 -37.0865 71° East  Level FlightAware Approximate
04:28AM 47.7228 -36.8910 71° East  Level FlightAware Approximate
04:29AM 47.7678 -36.6952 71° East  Level FlightAware Approximate
04:30AM 47.8125 -36.4991 71° East  Level FlightAware Approximate
04:31AM 47.8388 -36.2955 72° East  Level Estimated
04:32AM 47.8820 -36.0983 72° East  Level FlightAware Approximate
04:33AM 47.9249 -35.9009 72° East  Level FlightAware Approximate
04:34AM 47.9675 -35.7031 72° East  Level FlightAware Approximate
04:35AM 48.0098 -35.5049 72° East  Level FlightAware Approximate
04:36AM 48.0517 -35.3065 72° East  Level FlightAware Approximate
04:37AM 48.0932 -35.1077 73° East  Level FlightAware Approximate
04:38AM 48.1344 -34.9086 73° East  Level FlightAware Approximate
04:39AM 48.1753 -34.7092 73° East  Level FlightAware Approximate
04:40AM 48.2158 -34.5095 73° East  Level FlightAware Approximate
04:41AM 48.2560 -34.3094 73° East  Level FlightAware Approximate
04:42AM 48.2958 -34.1091 73° East  Level FlightAware Approximate
04:43AM 48.3353 -33.9084 73° East  Level FlightAware Approximate
04:44AM 48.3566 -33.7015 74° East  Level Estimated
04:45AM 48.3951 -33.5001 74° East  Level FlightAware Approximate
04:46AM 48.4332 -33.2985 74° East  Level FlightAware Approximate
04:47AM 48.4710 -33.0966 74° East  Level FlightAware Approximate
04:48AM 48.5084 -32.8943 74° East  Level FlightAware Approximate
04:49AM 48.5455 -32.6918 74° East  Level FlightAware Approximate
04:50AM 48.5823 -32.4889 75° East  Level FlightAware Approximate
04:51AM 48.6186 -32.2858 75° East  Level FlightAware Approximate
04:52AM 48.6546 -32.0824 75° East  Level FlightAware Approximate
04:53AM 48.6903 -31.8787 75° East  Level FlightAware Approximate
04:54AM 48.7256 -31.6747 75° East  Level FlightAware Approximate
04:55AM 48.7605 -31.4704 75° East  Level FlightAware Approximate
04:56AM 48.7951 -31.2659 76° East  Level FlightAware Approximate
04:57AM 48.8293 -31.0610 76° East  Level FlightAware Approximate
04:58AM 48.8632 -30.8559 76° East  Level FlightAware Approximate
04:59AM 48.8966 -30.6505 76° East  Level FlightAware Approximate
05:00AM 48.9298 -30.4448 76° East  Level FlightAware Approximate
05:01AM 48.9625 -30.2389 76° East  Level FlightAware Approximate
05:02AM 48.9949 -30.0326 76° East  Level FlightAware Approximate
05:03AM 49.0085 -29.8215 77° East  Level Estimated
05:04AM 49.0386 -29.6143 77° East  Level FlightAware Approximate
05:05AM 49.0682 -29.4069 78° East  Level FlightAware Approximate
05:06AM 49.0976 -29.1991 78° East  Level FlightAware Approximate
05:07AM 49.1265 -28.9912 78° East  Level FlightAware Approximate
05:08AM 49.1551 -28.7830 78° East  Level FlightAware Approximate
05:09AM 49.1833 -28.5745 78° East  Level FlightAware Approximate
05:10AM 49.2111 -28.3659 78° East  Level FlightAware Approximate
05:11AM 49.2385 -28.1570 79° East  Level FlightAware Approximate
05:12AM 49.2656 -27.9478 79° East  Level FlightAware Approximate
05:13AM 49.2923 -27.7385 79° East  Level FlightAware Approximate
05:14AM 49.3186 -27.5289 79° East  Level FlightAware Approximate
05:15AM 49.3446 -27.3191 79° East  Level FlightAware Approximate
05:16AM 49.3701 -27.1090 79° East  Level FlightAware Approximate
05:17AM 49.3953 -26.8988 79° East  Level FlightAware Approximate
05:18AM 49.4201 -26.6883 80° East  Level FlightAware Approximate
05:19AM 49.4445 -26.4776 80° East  Level FlightAware Approximate
05:20AM 49.4685 -26.2668 80° East  Level FlightAware Approximate
05:21AM 49.4921 -26.0557 80° East  Level FlightAware Approximate
05:22AM 49.5154 -25.8444 80° East  Level FlightAware Approximate
05:23AM 49.5383 -25.6329 80° East  Level FlightAware Approximate
05:24AM 49.5607 -25.4212 81° East  Level FlightAware Approximate
05:25AM 49.5828 -25.2093 81° East  Level FlightAware Approximate
05:26AM 49.6045 -24.9973 81° East  Level FlightAware Approximate
05:27AM 49.6259 -24.7850 81° East  Level FlightAware Approximate
05:28AM 49.6468 -24.5726 81° East  Level FlightAware Approximate
05:29AM 49.6674 -24.3599 81° East  Level FlightAware Approximate
05:30AM 49.6875 -24.1472 82° East  Level FlightAware Approximate
05:31AM 49.7073 -23.9342 82° East  Level FlightAware Approximate
05:32AM 49.7267 -23.7210 82° East  Level FlightAware Approximate
05:33AM 49.7456 -23.5077 82° East  Level FlightAware Approximate
05:34AM 49.7642 -23.2942 82° East  Level FlightAware Approximate
05:35AM 49.7824 -23.0806 82° East  Level FlightAware Approximate
05:36AM 49.8003 -22.8664 83° East  Level FlightAware Approximate
05:37AM 49.8177 -22.6521 83° East  Level FlightAware Approximate
05:38AM 49.8348 -22.4377 83° East  Level FlightAware Approximate
05:39AM 49.8514 -22.2230 83° East  Level FlightAware Approximate
05:40AM 49.8677 -22.0083 83° East  Level FlightAware Approximate
05:41AM 49.8835 -21.7934 83° East  Level FlightAware Approximate
05:42AM 49.8990 -21.5783 84° East  Level FlightAware Approximate
05:43AM 49.9140 -21.3631 84° East  Level FlightAware Approximate
05:44AM 49.9287 -21.1478 84° East  Level FlightAware Approximate
05:45AM 49.9430 -20.9324 84° East  Level FlightAware Approximate
05:46AM 49.9568 -20.7168 84° East  Level FlightAware Approximate
05:47AM 49.9703 -20.5011 84° East  Level FlightAware Approximate
05:48AM 49.9833 -20.2853 85° East  Level FlightAware Approximate
05:49AM 49.9960 -20.0694 85° East  Level FlightAware Approximate
05:50AM 49.9893 -19.8528 93° East  Level Estimated
05:51AM 49.9823 -19.6362 93° East  Level FlightAware Approximate
05:52AM 49.9748 -19.4198 93° East  Level FlightAware Approximate
05:53AM 49.9669 -19.2034 93° East  Level FlightAware Approximate
05:54AM 49.9587 -18.9871 93° East  Level FlightAware Approximate
05:55AM 49.9500 -18.7708 93° East  Level FlightAware Approximate
05:56AM 49.9409 -18.5547 94° East  Level FlightAware Approximate
05:57AM 49.9315 -18.3386 94° East  Level FlightAware Approximate
05:58AM 49.9216 -18.1226 94° East  Level FlightAware Approximate
05:59AM 49.9113 -17.9070 94° East  Level FlightAware Approximate
06:00AM 49.9007 -17.6916 94° East  Level FlightAware Approximate
06:01AM 49.8896 -17.4762 94° East  Level FlightAware Approximate
06:02AM 49.8782 -17.2610 95° East  Level FlightAware Approximate
06:03AM 49.8663 -17.0459 95° East  Level FlightAware Approximate
06:04AM 49.8541 -16.8308 95° East  Level FlightAware Approximate
06:05AM 49.8414 -16.6159 95° East  Level FlightAware Approximate
06:06AM 49.8284 -16.4011 95° East  Level FlightAware Approximate
06:07AM 49.8149 -16.1864 95° East  Level FlightAware Approximate
06:08AM 49.8011 -15.9718 96° East  Level FlightAware Approximate
06:09AM 49.7868 -15.7573 96° East  Level FlightAware Approximate
06:10AM 49.7722 -15.5430 96° East  Level FlightAware Approximate
06:11AM 49.7572 -15.3288 96° East  Level FlightAware Approximate
06:12AM 49.7418 -15.1147 96° East  Level FlightAware Approximate
06:13AM 49.7259 -14.9008 97° East  Level Estimated
06:14AM 49.7090 -14.6872 97° East  Level FlightAware Approximate
06:15AM 49.6916 -14.4737 97° East  Level FlightAware Approximate
06:16AM 49.6739 -14.2604 97° East  Level FlightAware Approximate
06:17AM 49.6557 -14.0472 97° East  Level FlightAware Approximate
06:17AM 49.4730 -10.6730 98° East 514 592 37,000  Level FlightAware
06:18AM 49.6372 -13.8342 98° East  Level FlightAware Approximate
06:18AM 49.4570 -10.5510 101° East 514 592 37,000  Level FlightAware
06:18AM 49.4410 -10.4390 102° East 514 592 37,000 -120 Level FlightAware
06:19AM 49.4090 -10.2280 103° East 518 596 36,900 -120 Descending FlightAware
06:20AM 49.3890 -10.1010 104° East 518 596 36,900 60 Level FlightAware
06:21AM 49.3660 -9.9470 103° East 518 596 37,000  Climbing FlightAware
06:21AM 49.3480 -9.8290 103° East 518 596 36,900  Descending FlightAware
06:22AM 49.3320 -9.7260 103° East 519 597 37,000 60 Climbing FlightAware
06:22AM 49.3100 -9.5760 103° East 519 597 37,000  Level FlightAware
06:23AM 49.2850 -9.4210 104° East 522 601 37,000  Level FlightAware
06:24AM 49.2620 -9.2770 104° East 522 601 37,000  Level FlightAware
06:24AM 49.2460 -9.1660 102° East 522 601 37,000 -120 Level FlightAware
06:25AM 49.2146 -8.9945 102° East 490 564 36,900 -180 Descending FlightAware UK
06:25AM 49.2170 -8.9940 102° East 524 603 36,900  Level FlightAware
06:26AM 49.1950 -8.8610 104° East 524 603 36,900  Level FlightAware
06:26AM 49.1770 -8.7460 103° East 525 604 36,900  Level FlightAware
06:27AM 49.1550 -8.6130 104° East 526 605 36,900  Level FlightAware
06:27AM 49.1340 -8.4860 104° East 527 606 36,900 60 Level FlightAware
06:28AM 49.1140 -8.3640 104° East 527 606 37,000  Climbing FlightAware
06:28AM 49.0938 -8.2419 104° East 490 564 36,900 -180 Descending FlightAware UK
06:28AM 49.0920 -8.2350 104° East 527 606 36,900 120 Level FlightAware
06:29AM 49.0700 -8.1050 104° East 528 608 37,000  Climbing FlightAware
06:30AM 49.0500 -7.9900 105° East 529 609 36,900 -120 Descending FlightAware
06:30AM 49.0280 -7.8600 104° East 531 611 36,900  Level FlightAware
06:31AM 49.0060 -7.7300 104° East 531 611 36,900  Level FlightAware
06:31AM 48.9800 -7.5915 104° East 492 566 36,900  Level FlightAware UK
06:31AM 48.9770 -7.5880 104° East 528 608 36,900  Level FlightAware
06:32AM 48.9470 -7.4620 110° East 526 605 36,900  Level FlightAware
06:33AM 48.9170 -7.3410 111° Southeast 525 604 36,900  Level FlightAware
06:33AM 48.8880 -7.2280 111° Southeast 524 603 36,900  Level FlightAware
06:34AM 48.8550 -7.1010 112° Southeast 524 603 36,900  Level FlightAware
06:34AM 48.8240 -6.9860 112° Southeast 524 603 36,900  Level FlightAware
06:34AM 48.8202 -6.9714 112° Southeast 490 564 36,900  Level FlightAware UK
06:35AM 48.7950 -6.8730 112° Southeast 523 602 36,900  Level FlightAware
06:35AM 48.7931 -6.8687 112° Southeast 488 562 36,900  Level FlightAware UK
06:35AM 48.7665 -6.7675 112° Southeast 488 562 36,900  Level FlightAware UK
06:36AM 48.7590 -6.7400 112° Southeast 523 602 36,900 120 Level FlightAware
06:36AM 48.7300 -6.6280 111° Southeast 523 602 37,000  Climbing FlightAware
06:37AM 48.7020 -6.5236 111° Southeast 490 564 36,900 -180 Descending FlightAware UK
06:37AM 48.6970 -6.5060 111° Southeast 524 603 36,900  Level FlightAware
06:37AM 48.6650 -6.3840 112° Southeast 524 603 36,900 60 Level FlightAware
06:38AM 48.6360 -6.2760 112° Southeast 524 603 37,000  Climbing FlightAware
06:38AM 48.6033 -6.1573 112° Southeast 490 564 36,900 -180 Descending FlightAware UK
06:38AM 48.6020 -6.1540 112° Southeast 525 604 36,900  Level FlightAware
06:39AM 48.5701 -6.0355 112° Southeast 490 564 36,900  Level FlightAware UK
06:39AM 48.5690 -6.0320 112° Southeast 524 603 36,900 120 Level FlightAware
06:40AM 48.5380 -5.9200 112° Southeast 524 603 37,000  Climbing FlightAware
06:40AM 48.5366 -5.9138 112° Southeast 490 564 36,900 -180 Descending FlightAware UK
06:40AM 48.5050 -5.7990 112° Southeast 525 604 36,900  Level FlightAware
06:40AM 48.5032 -5.7917 112° Southeast 490 564 36,900  Level FlightAware UK
06:41AM 48.4756 -5.6905 112° Southeast 490 564 36,900  Level FlightAware UK
06:41AM 48.4710 -5.6740 112° Southeast 525 604 36,900  Level FlightAware
06:41AM 48.4370 -5.5530 113° Southeast 525 604 36,900  Level FlightAware
06:42AM 48.4070 -5.4480 113° Southeast 526 605 36,900 60 Level FlightAware
06:43AM 48.3730 -5.3270 113° Southeast 527 606 37,000  Climbing FlightAware
06:43AM 48.3400 -5.2050 112° Southeast 527 606 36,900 -120 Descending FlightAware
06:44AM 48.3050 -5.0840 113° Southeast 528 608 36,900  Level FlightAware
06:44AM 48.2740 -4.9760 113° Southeast 528 608 36,900  Level FlightAware
06:45AM 48.2390 -4.8520 113° Southeast 529 609 36,900  Level FlightAware
06:46AM 48.2040 -4.7300 113° Southeast 529 609 36,900  Level FlightAware
06:46AM 48.1730 -4.6260 114° Southeast 530 610 36,900  Level FlightAware
06:47AM 48.1360 -4.4950 113° Southeast 529 609 36,900 60 Level FlightAware
06:47AM 48.1010 -4.3740 113° Southeast 531 611 37,000  Climbing FlightAware
06:48AM 48.0700 -4.2700 114° Southeast 532 612 36,900  Descending FlightAware
06:48AM 48.0340 -4.1490 114° Southeast 532 612 37,000 60 Climbing FlightAware
06:49AM 47.9980 -4.0250 113° Southeast 533 613 37,000 -120 Level FlightAware
06:50AM 47.9680 -3.9270 115° Southeast 533 613 36,900 -120 Descending FlightAware
06:50AM 47.9310 -3.8000 113° Southeast 534 615 36,900  Level FlightAware
06:51AM 47.9020 -3.7050 114° Southeast 534 615 36,900 60 Level FlightAware
06:51AM 47.8640 -3.5860 115° Southeast 533 613 37,000  Climbing FlightAware
06:52AM 47.8280 -3.4820 117° Southeast 533 613 36,900 -120 Descending FlightAware
06:52AM 47.7810 -3.3500 118° Southeast 534 615 36,900  Level FlightAware
06:53AM 47.7440 -3.2490 119° Southeast 535 616 36,900  Level FlightAware
06:54AM 47.7020 -3.1320 118° Southeast 536 617 36,900  Level FlightAware
06:54AM 47.6600 -3.0120 117° Southeast 536 617 36,900  Level FlightAware
06:55AM 47.6210 -2.8970 117° Southeast 538 619 36,900 60 Level FlightAware
06:55AM 47.5900 -2.7880 113° Southeast 540 621 37,000 60 Climbing FlightAware
06:56AM 47.5560 -2.6650 112° Southeast 540 621 37,000  Level FlightAware
06:56AM 47.5130 -2.5630 122° Southeast 527 606 37,000 -120 Level FlightAware
06:57AM 47.4470 -2.4650 135° Southeast 521 600 36,900 -120 Descending FlightAware
06:58AM 47.3910 -2.3850 136° Southeast 522 601 36,900  Level FlightAware
06:58AM 47.3310 -2.2930 134° Southeast 526 605 36,900  Level FlightAware
06:59AM 47.2740 -2.1940 130° Southeast 528 608 36,900  Level FlightAware
06:59AM 47.2210 -2.0960 129° Southeast 527 606 36,900  Level FlightAware
07:00AM 47.1680 -1.9980 128° Southeast 528 608 36,900  Level FlightAware
07:01AM 47.1130 -1.8980 129° Southeast 527 606 36,900  Level FlightAware
07:01AM 47.0640 -1.8080 129° Southeast 526 605 36,900  Level FlightAware
07:02AM 47.0120 -1.7140 129° Southeast 526 605 36,900  Level FlightAware
07:02AM 46.9560 -1.6080 128° Southeast 526 605 36,900  Level FlightAware
07:03AM 46.9040 -1.5140 129° Southeast 526 605 36,900 60 Level FlightAware
07:03AM 46.8490 -1.4140 129° Southeast 526 605 37,000  Climbing FlightAware
07:04AM 46.7930 -1.3150 130° Southeast 526 605 36,900 -120 Descending FlightAware
07:05AM 46.7380 -1.2130 128° Southeast 525 604 36,900  Level FlightAware
07:05AM 46.6890 -1.1250 129° Southeast 524 603 36,900  Level FlightAware
07:06AM 46.6350 -1.0290 129° Southeast 525 604 36,900  Level FlightAware
07:06AM 46.5790 -0.9280 129° Southeast 524 603 36,900  Level FlightAware
07:07AM 46.5300 -0.8400 129° Southeast 523 602 36,900  Level FlightAware
07:08AM 46.4750 -0.7450 130° Southeast 523 602 36,900  Level FlightAware
07:08AM 46.4270 -0.6490 126° Southeast 525 604 36,900  Level FlightAware
07:09AM 46.3900 -0.5540 119° Southeast 528 608 36,900 60 Level FlightAware
07:09AM 46.3450 -0.4280 117° Southeast 528 608 37,000  Climbing FlightAware
07:10AM 46.3060 -0.3180 117° Southeast 528 608 36,900  Descending FlightAware
07:10AM 46.2680 -0.2090 117° Southeast 527 606 37,000 60 Climbing FlightAware
07:11AM 46.2280 -0.0990 118° Southeast 527 606 37,000 -120 Level FlightAware
07:12AM 46.1920 0.0120 115° Southeast 527 606 36,900  Descending FlightAware
07:12AM 46.1620 0.1240 111° Southeast 531 611 37,000 60 Climbing FlightAware
07:13AM 46.1290 0.2620 109° East 531 611 37,000  Level FlightAware
07:13AM 46.1060 0.3630 108° East 531 611 37,000 -120 Level FlightAware
07:14AM 46.0730 0.4970 110° East 534 615 36,900 -120 Descending FlightAware
07:15AM 46.0460 0.6150 108° East 534 615 36,900  Level FlightAware
07:15AM 46.0180 0.7350 109° East 533 613 36,900 60 Level FlightAware
07:16AM 45.9950 0.8290 109° East 533 613 37,000  Climbing FlightAware
07:16AM 45.9590 0.9860 108° East 533 613 36,900 -120 Descending FlightAware
07:17AM 45.9300 1.1060 109° East 532 612 36,900  Level FlightAware
07:18AM 45.9040 1.2160 109° East 531 611 36,900  Level FlightAware
07:18AM 45.8750 1.3320 110° East 530 610 36,900  Level FlightAware
07:19AM 45.8480 1.4450 109° East 529 609 36,900  Level FlightAware
07:19AM 45.8170 1.5700 110° East 529 609 36,900  Level FlightAware
07:20AM 45.7910 1.6760 109° East 529 609 36,900  Level FlightAware
07:21AM 45.7640 1.7880 109° East 528 608 36,900  Level FlightAware
07:21AM 45.7280 1.9320 110° East 526 605 36,900 60 Level FlightAware
07:22AM 45.7030 2.0330 109° East 524 603 37,000  Climbing FlightAware
07:22AM 45.6720 2.1570 110° East 524 603 36,900  Descending FlightAware
07:23AM 45.6440 2.2650 110° East 524 603 37,000 60 Climbing FlightAware
07:24AM 45.6150 2.3820 109° East 525 604 37,000  Level FlightAware
07:24AM 45.5850 2.4990 110° East 525 604 37,000 -120 Level FlightAware
07:25AM 45.5550 2.6130 111° Southeast 525 604 36,900  Descending FlightAware
07:25AM 45.5260 2.7300 109° East 526 605 37,000 60 Climbing FlightAware
07:26AM 45.4830 2.8890 111° Southeast 525 604 37,000 -120 Level FlightAware
07:27AM 45.4550 2.9920 111° Southeast 524 603 36,900  Descending FlightAware
07:27AM 45.4250 3.1050 111° Southeast 525 604 37,000  Climbing FlightAware
07:28AM 45.3990 3.1980 112° Southeast 525 604 36,900  Descending FlightAware
07:28AM 45.3650 3.3230 111° Southeast 526 605 37,000 60 Climbing FlightAware
07:29AM 45.3320 3.4420 111° Southeast 526 605 37,000 -120 Level FlightAware
07:30AM 45.2980 3.5640 112° Southeast 525 604 36,900 -120 Descending FlightAware
07:30AM 45.2710 3.6630 111° Southeast 526 605 36,900  Level FlightAware
07:31AM 45.2380 3.7820 111° Southeast 525 604 36,900 60 Level FlightAware
07:31AM 45.2030 3.9000 113° Southeast 526 605 37,000 60 Climbing FlightAware
07:32AM 45.1700 3.9910 117° Southeast 526 605 37,000 -120 Level FlightAware
07:33AM 45.1200 4.0990 123° Southeast 526 605 36,900  Descending FlightAware
07:33AM 45.0780 4.1940 122° Southeast 525 604 37,000  Climbing FlightAware
07:34AM 45.0290 4.2970 124° Southeast 526 605 36,900 -120 Descending FlightAware
07:34AM 44.9790 4.4020 124° Southeast 525 604 36,900 60 Level FlightAware
07:35AM 44.9330 4.4990 124° Southeast 524 603 37,000  Climbing FlightAware
07:35AM 44.8840 4.6010 124° Southeast 524 603 36,900 -120 Descending FlightAware
07:36AM 44.8370 4.7030 123° Southeast 523 602 36,900  Level FlightAware
07:37AM 44.7940 4.7910 125° Southeast 523 602 36,900  Level FlightAware
07:37AM 44.7440 4.8950 124° Southeast 522 601 36,900  Level FlightAware
07:38AM 44.7000 4.9970 121° Southeast 522 601 36,900 60 Level FlightAware
07:38AM 44.6580 5.0950 121° Southeast 522 601 37,000  Climbing FlightAware
07:39AM 44.6100 5.2050 121° Southeast 522 601 36,900 -120 Descending FlightAware
07:40AM 44.5690 5.2970 122° Southeast 521 600 36,900  Level FlightAware
07:40AM 44.5210 5.4060 122° Southeast 521 600 36,900  Level FlightAware
07:41AM 44.4830 5.4910 122° Southeast 520 598 36,900 60 Level FlightAware
07:41AM 44.4340 5.5990 122° Southeast 519 597 37,000  Climbing FlightAware
07:42AM 44.3900 5.6960 122° Southeast 519 597 36,900 -120 Descending FlightAware
07:42AM 44.3430 5.8010 122° Southeast 518 596 36,900 60 Level FlightAware
07:43AM 44.2990 5.8970 123° Southeast 518 596 37,000 60 Climbing FlightAware
07:44AM 44.2560 5.9930 122° Southeast 518 596 37,000 -120 Level FlightAware
07:44AM 44.2070 6.1000 123° Southeast 518 596 36,900  Descending FlightAware
07:45AM 44.1670 6.1900 122° Southeast 519 597 37,000 60 Climbing FlightAware
07:45AM 44.1190 6.2910 123° Southeast 520 598 37,000 -120 Level FlightAware
07:46AM 44.0710 6.3950 123° Southeast 520 598 36,900  Descending FlightAware
07:47AM 44.0240 6.4960 123° Southeast 520 598 37,000 60 Climbing FlightAware
07:47AM 43.9860 6.5780 123° Southeast 520 598 37,000  Level FlightAware
07:48AM 43.9390 6.6790 123° Southeast 521 600 37,000  Level FlightAware
07:48AM 43.8890 6.7890 122° Southeast 521 600 37,000  Level FlightAware
07:49AM 43.8450 6.8820 123° Southeast 523 602 37,000 -120 Level FlightAware
07:49AM 43.7980 6.9860 122° Southeast 523 602 36,900  Descending FlightAware
07:50AM 43.7500 7.0870 123° Southeast 523 602 37,000 60 Climbing FlightAware
07:51AM 43.7080 7.1730 124° Southeast 523 602 37,000 -120 Level FlightAware
07:51AM 43.6600 7.2740 123° Southeast 522 601 36,900  Descending FlightAware
07:52AM 43.6160 7.3680 123° Southeast 522 601 37,000  Climbing FlightAware
07:52AM 43.5690 7.4650 124° Southeast 522 601 36,900  Descending FlightAware
07:53AM 43.5200 7.5680 123° Southeast 522 601 37,000  Climbing FlightAware
07:54AM 43.4730 7.6650 124° Southeast 521 600 36,900  Descending FlightAware
07:54AM 43.4240 7.7670 123° Southeast 520 598 37,000 60 Climbing FlightAware
07:55AM 43.3810 7.8550 124° Southeast 520 598 37,000 -120 Level FlightAware
07:55AM 43.3320 7.9570 123° Southeast 520 598 36,900  Descending FlightAware
07:56AM 43.2840 8.0550 124° Southeast 519 597 37,000  Climbing FlightAware
07:56AM 43.2400 8.1430 124° Southeast 518 596 36,900 -120 Descending FlightAware
07:57AM 43.1940 8.2380 124° Southeast 518 596 36,900  Level FlightAware
07:58AM 43.1450 8.3390 124° Southeast 519 597 36,900 60 Level FlightAware
07:58AM 43.1030 8.4230 124° Southeast 518 596 37,000 60 Climbing FlightAware
07:59AM 43.0530 8.5230 124° Southeast 517 595 37,000 -120 Level FlightAware
07:59AM 43.0080 8.6150 124° Southeast 516 594 36,900 -120 Descending FlightAware
08:00AM 42.9600 8.7120 124° Southeast 515 593 36,900 60 Level FlightAware
08:01AM 42.9130 8.8060 124° Southeast 514 592 37,000 60 Climbing FlightAware
08:01AM 42.8640 8.9020 125° Southeast 514 592 37,000  Level FlightAware
08:02AM 42.8160 8.9950 125° Southeast 514 592 37,000 -120 Level FlightAware
08:02AM 42.7680 9.0920 124° Southeast 515 593 36,900  Descending FlightAware
08:03AM 42.7240 9.1800 124° Southeast 515 593 37,000 60 Climbing FlightAware
08:03AM 42.6790 9.2680 125° Southeast 516 594 37,000  Level FlightAware
08:04AM 42.6300 9.3630 125° Southeast 516 594 37,000 -120 Level FlightAware
08:05AM 42.5850 9.4620 122° Southeast 513 590 36,900  Descending FlightAware
08:05AM 42.5440 9.5630 119° Southeast 510 587 37,000  Climbing FlightAware
08:06AM 42.5060 9.6590 118° Southeast 510 587 36,900 -120 Descending FlightAware
08:06AM 42.4680 9.7570 118° Southeast 508 585 36,900 60 Level FlightAware
08:07AM 42.4290 9.8560 118° Southeast 508 585 37,000  Climbing FlightAware
08:08AM 42.3880 9.9620 118° Southeast 508 585 36,900  Descending FlightAware
08:08AM 42.3500 10.0580 118° Southeast 509 586 37,000 60 Climbing FlightAware
08:09AM 42.3140 10.1510 118° Southeast 509 586 37,000  Level FlightAware
08:09AM 42.2740 10.2490 119° Southeast 509 586 37,000  Level FlightAware
08:10AM 42.2380 10.3410 118° Southeast 507 583 37,000 -120 Level FlightAware
08:10AM 42.1990 10.4380 118° Southeast 506 582 36,900  Descending FlightAware
08:11AM 42.1510 10.5600 118° Southeast 504 580 37,000 60 Climbing FlightAware
08:12AM 42.1110 10.6530 120° Southeast 509 586 37,000 -120 Level FlightAware
08:12AM 42.0660 10.7420 124° Southeast 512 589 36,900  Descending FlightAware
08:13AM 42.0160 10.8380 125° Southeast 510 587 37,000 60 Climbing FlightAware
08:13AM 41.9710 10.9240 125° Southeast 508 585 37,000  Level FlightAware
08:14AM 41.9260 11.0130 124° Southeast 507 583 37,000  Level FlightAware
08:15AM 41.8760 11.1150 123° Southeast 507 583 37,000 -120 Level FlightAware
08:15AM 41.8290 11.2080 124° Southeast 505 581 36,900  Descending FlightAware
08:16AM 41.7880 11.2890 124° Southeast 504 580 37,000 60 Climbing FlightAware
08:16AM 41.7370 11.3900 124° Southeast 503 579 37,000  Level FlightAware
08:17AM 41.6910 11.4790 125° Southeast 502 578 37,000  Level FlightAware
08:18AM 41.6490 11.5610 124° Southeast 500 575 37,000  Level FlightAware
08:18AM 41.5990 11.6580 125° Southeast 499 574 37,000  Level FlightAware
08:19AM 41.5550 11.7440 124° Southeast 499 574 37,000  Level FlightAware
08:19AM 41.5100 11.8330 124° Southeast 500 575 37,000  Level FlightAware
08:20AM 41.4650 11.9170 126° Southeast 500 575 37,000 -120 Level FlightAware
08:20AM 41.4180 12.0080 125° Southeast 500 575 36,900  Descending FlightAware
08:21AM 41.3690 12.1020 125° Southeast 501 577 37,000 60 Climbing FlightAware
08:22AM 41.3250 12.1850 125° Southeast 501 577 37,000  Level FlightAware
08:22AM 41.2770 12.2760 125° Southeast 501 577 37,000  Level FlightAware
08:23AM 41.2340 12.3560 126° Southeast 500 575 37,000  Level FlightAware
08:23AM 41.1860 12.4490 124° Southeast 501 577 37,000  Level FlightAware
08:24AM 41.1390 12.5340 126° Southeast 502 578 37,000  Level FlightAware
08:25AM 41.0900 12.6270 125° Southeast 502 578 37,000 -120 Level FlightAware
08:25AM 41.0500 12.7020 125° Southeast 501 577 36,900  Descending FlightAware
08:26AM 40.9990 12.7940 126° Southeast 499 574 37,000  Climbing FlightAware
08:26AM 40.9490 12.8890 125° Southeast 498 573 36,900  Descending FlightAware
08:27AM 40.9050 12.9810 122° Southeast 495 570 37,000 60 Climbing FlightAware
08:27AM 40.8640 13.0720 121° Southeast 496 571 37,000  Level FlightAware
08:28AM 40.8220 13.1690 120° Southeast 495 570 37,000  Level FlightAware
08:29AM 40.7850 13.2520 120° Southeast 492 566 37,000  Level FlightAware
08:29AM 40.7460 13.3400 120° Southeast 491 565 37,000 -120 Level FlightAware
08:30AM 40.7030 13.4380 120° Southeast 489 563 36,900 -120 Descending FlightAware
08:30AM 40.6670 13.5210 120° Southeast 487 560 36,900  Level FlightAware
08:31AM 40.6260 13.6130 120° Southeast 484 557 36,900  Level FlightAware
08:32AM 40.5860 13.7040 120° Southeast 481 554 36,900 60 Level FlightAware
08:32AM 40.5450 13.7940 121° Southeast 479 551 37,000 60 Climbing FlightAware
08:33AM 40.5060 13.8820 120° Southeast 477 549 37,000 -120 Level FlightAware
08:33AM 40.4720 13.9570 121° Southeast 476 548 36,900  Descending FlightAware
08:34AM 40.4290 14.0540 120° Southeast 476 548 37,000 60 Climbing FlightAware
08:34AM 40.3910 14.1380 121° Southeast 477 549 37,000  Level FlightAware
08:35AM 40.3490 14.2310 121° Southeast 477 549 37,000  Level FlightAware
08:36AM 40.3060 14.3250 121° Southeast 479 551 37,000 -120 Level FlightAware
08:36AM 40.2700 14.4030 121° Southeast 481 554 36,900  Descending FlightAware
08:37AM 40.2230 14.5080 120° Southeast 484 557 37,000 60 Climbing FlightAware
08:38AM 40.1820 14.5990 121° Southeast 486 559 37,000  Level FlightAware
08:38AM 40.1440 14.6790 122° Southeast 487 560 37,000  Level FlightAware
08:39AM 40.1040 14.7650 121° Southeast 488 562 37,000  Level FlightAware
08:39AM 40.0600 14.8610 121° Southeast 491 565 37,000 -120 Level FlightAware
08:40AM 40.0220 14.9430 121° Southeast 492 566 36,900  Descending FlightAware
08:40AM 39.9780 15.0390 121° Southeast 494 568 37,000 60 Climbing FlightAware
08:41AM 39.9350 15.1310 121° Southeast 496 571 37,000 -120 Level FlightAware
08:42AM 39.8970 15.2130 121° Southeast 497 572 36,900  Descending FlightAware
08:42AM 39.8520 15.3100 121° Southeast 498 573 37,000 60 Climbing FlightAware
08:43AM 39.8140 15.3890 122° Southeast 498 573 37,000  Level FlightAware
08:43AM 39.7700 15.4810 122° Southeast 499 574 37,000 -120 Level FlightAware
08:44AM 39.7290 15.5680 121° Southeast 500 575 36,900  Descending FlightAware
08:45AM 39.6840 15.6650 121° Southeast 499 574 37,000  Climbing FlightAware
08:45AM 39.6470 15.7520 119° Southeast 499 574 36,900 -120 Descending FlightAware
08:46AM 39.6110 15.8520 115° Southeast 498 573 36,900  Level FlightAware
08:46AM 39.5790 15.9480 113° Southeast 499 574 36,900  Level FlightAware
08:47AM 39.5490 16.0380 113° Southeast 500 575 36,900  Level FlightAware
08:47AM 39.5160 16.1370 113° Southeast 499 574 36,900  Level FlightAware
08:48AM 39.4840 16.2330 113° Southeast 499 574 36,900 60 Level FlightAware
08:49AM 39.4510 16.3320 113° Southeast 499 574 37,000 60 Climbing FlightAware
08:49AM 39.4210 16.4220 113° Southeast 500 575 37,000 -120 Level FlightAware
08:50AM 39.3860 16.5270 113° Southeast 499 574 36,900  Descending FlightAware
08:50AM 39.3560 16.6170 113° Southeast 499 574 37,000 60 Climbing FlightAware
08:51AM 39.3220 16.7150 114° Southeast 500 575 37,000  Level FlightAware
08:51AM 39.2950 16.7980 113° Southeast 500 575 37,000  Level FlightAware
08:52AM 39.2600 16.9020 113° Southeast 501 577 37,000 -120 Level FlightAware
08:53AM 39.2230 17.0080 114° Southeast 501 577 36,900  Descending FlightAware
08:53AM 39.2000 17.0760 114° Southeast 500 575 37,000  Climbing FlightAware
08:54AM 39.1600 17.1900 114° Southeast 500 575 36,900  Descending FlightAware
08:54AM 39.1260 17.2910 113° Southeast 500 575 37,000 60 Climbing FlightAware
08:55AM 39.0970 17.3760 114° Southeast 503 579 37,000  Level FlightAware
08:56AM 39.0620 17.4770 114° Southeast 506 582 37,000 -120 Level FlightAware
08:56AM 39.0250 17.5820 114° Southeast 509 586 36,900  Descending FlightAware
08:57AM 38.9950 17.6680 114° Southeast 510 587 37,000 60 Climbing FlightAware
08:57AM 38.9590 17.7700 114° Southeast 512 589 37,000  Level FlightAware
08:58AM 38.9250 17.8670 114° Southeast 512 589 37,000  Level FlightAware
08:58AM 38.8930 17.9590 114° Southeast 511 588 37,000  Level FlightAware
08:59AM 38.8580 18.0580 114° Southeast 511 588 37,000  Level FlightAware
09:00AM 38.8230 18.1570 114° Southeast 510 587 37,000  Level FlightAware
09:00AM 38.7870 18.2560 115° Southeast 509 586 37,000  Level FlightAware
09:01AM 38.7550 18.3440 115° Southeast 508 585 37,000  Level FlightAware
09:01AM 38.7220 18.4390 114° Southeast 507 583 37,000  Level FlightAware
09:02AM 38.6840 18.5430 115° Southeast 506 582 37,000  Level FlightAware
09:03AM 38.6520 18.6320 115° Southeast 506 582 37,000 -120 Level FlightAware
09:03AM 38.6230 18.7200 113° Southeast 505 581 36,900 -120 Descending FlightAware
09:04AM 38.5920 18.8240 111° Southeast 505 581 36,900  Level FlightAware
09:04AM 38.5770 18.8740 111° Southeast 505 581 36,900 60 Level FlightAware
09:05AM 38.5300 19.0260 112° Southeast 501 577 37,000 60 Climbing FlightAware
09:06AM 38.5030 19.1210 110° East 501 577 37,000  Level FlightAware
09:06AM 38.4790 19.2060 110° East 501 577 37,000  Level FlightAware
09:07AM 38.4420 19.3240 112° Southeast 514 592 37,000  Level FlightAware
09:08AM 38.4090 19.4320 111° Southeast 518 596 37,000  Level FlightAware
09:08AM 38.3790 19.5320 111° Southeast 520 598 37,000  Level FlightAware
09:09AM 38.3440 19.6470 111° Southeast 523 602 37,000  Level FlightAware
09:09AM 38.3110 19.7560 111° Southeast 525 604 37,000 -120 Level FlightAware
09:10AM 38.2760 19.8680 112° Southeast 524 603 36,900 -120 Descending FlightAware
09:11AM 38.2410 19.9830 111° Southeast 519 597 36,900 60 Level FlightAware
09:11AM 38.2110 20.0820 111° Southeast 516 594 37,000 60 Climbing FlightAware
09:12AM 38.1770 20.1910 112° Southeast 514 592 37,000  Level FlightAware
09:13AM 38.1510 20.2800 110° East 514 592 37,000  Level FlightAware
09:13AM 38.1240 20.3690 111° Southeast 514 592 37,000  Level FlightAware
09:14AM 38.0970 20.4570 111° Southeast 514 592 37,000  Level FlightAware
09:15AM 38.0620 20.5720 111° Southeast 514 592 37,000  Level FlightAware
09:15AM 37.9900 20.7880 113° Southeast 502 578 37,000  Level FlightAware
09:16AM 37.9580 20.8930 111° Southeast 502 578 37,000  Level FlightAware
09:17AM 37.9300 20.9840 111° Southeast 502 578 37,000  Level FlightAware
09:17AM 37.8900 21.1040 113° Southeast 505 581 37,000  Level FlightAware
09:18AM 37.8620 21.1910 112° Southeast 504 580 37,000  Level FlightAware
09:18AM 37.8290 21.2950 112° Southeast 505 581 37,000  Level FlightAware
09:19AM 37.7970 21.3940 112° Southeast 505 581 37,000  Level FlightAware
09:20AM 37.7630 21.5000 112° Southeast 505 581 37,000  Level FlightAware
09:20AM 37.7330 21.5930 112° Southeast 505 581 37,000  Level FlightAware
09:21AM 37.7060 21.6750 113° Southeast 347 399 37,000  Level FlightAware
09:21AM 37.6860 21.7350 113° Southeast 505 581 37,000  Level FlightAware
09:22AM 37.6610 21.8110 113° Southeast 504 580 37,000  Level FlightAware
09:22AM 37.6200 21.9390 112° Southeast 505 581 37,000  Level FlightAware
09:23AM 37.5740 22.0770 113° Southeast 505 581 37,000  Level FlightAware
09:24AM 37.5350 22.1950 113° Southeast 510 587 37,000 -120 Level FlightAware
09:25AM 37.5010 22.2970 113° Southeast 512 589 36,900 -120 Descending FlightAware
09:25AM 37.4610 22.4150 113° Southeast 511 588 36,900 60 Level FlightAware
09:26AM 37.4290 22.5130 112° Southeast 510 587 37,000 60 Climbing FlightAware
09:27AM 37.3960 22.6090 113° Southeast 509 586 37,000  Level FlightAware
09:27AM 37.3580 22.7220 113° Southeast 512 589 37,000 -120 Level FlightAware
09:28AM 37.3230 22.8240 113° Southeast 516 594 36,900  Descending FlightAware
09:28AM 37.2890 22.9230 113° Southeast 517 595 37,000 60 Climbing FlightAware
09:29AM 37.2490 23.0420 113° Southeast 518 596 37,000  Level FlightAware
09:30AM 37.2150 23.1410 113° Southeast 521 600 37,000  Level FlightAware
09:30AM 37.1890 23.2160 113° Southeast 519 597 37,000  Level FlightAware
09:31AM 37.1490 23.3330 113° Southeast 524 603 37,000  Level FlightAware
09:31AM 37.1210 23.4140 113° Southeast 526 605 37,000  Level FlightAware
09:32AM 37.0840 23.5210 113° Southeast 526 605 37,000  Level FlightAware
09:33AM 37.0460 23.6300 114° Southeast 526 605 37,000  Level FlightAware
09:33AM 37.0110 23.7300 114° Southeast 527 606 37,000  Level FlightAware
09:34AM 36.9800 23.8170 114° Southeast 527 606 37,000  Level FlightAware
09:34AM 36.9450 23.9200 113° Southeast 526 605 37,000 -120 Level FlightAware
09:35AM 36.9140 24.0060 114° Southeast 524 603 36,900  Descending FlightAware
09:35AM 36.8790 24.1050 114° Southeast 522 601 37,000 60 Climbing FlightAware
09:36AM 36.8450 24.2010 114° Southeast 521 600 37,000  Level FlightAware
09:37AM 36.8100 24.3000 114° Southeast 519 597 37,000  Level FlightAware
09:37AM 36.7750 24.3980 114° Southeast 519 597 37,000  Level FlightAware
09:38AM 36.7380 24.4990 115° Southeast 518 596 37,000  Level FlightAware
09:38AM 36.7040 24.5950 114° Southeast 518 596 37,000  Level FlightAware
09:39AM 36.6690 24.6930 114° Southeast 519 597 37,000  Level FlightAware
09:40AM 36.6380 24.7780 114° Southeast 520 598 37,000  Level FlightAware
09:40AM 36.6060 24.8650 115° Southeast 520 598 37,000  Level FlightAware
09:41AM 36.5660 24.9770 114° Southeast 522 601 37,000  Level FlightAware
09:41AM 36.5340 25.0650 114° Southeast 523 602 37,000  Level FlightAware
09:42AM 36.4980 25.1630 115° Southeast 523 602 37,000  Level FlightAware
09:42AM 36.4640 25.2560 114° Southeast 524 603 37,000  Level FlightAware
09:43AM 36.4280 25.3550 114° Southeast 524 603 37,000  Level FlightAware
09:44AM 36.3920 25.4510 115° Southeast 524 603 37,000  Level FlightAware
09:44AM 36.3570 25.5440 115° Southeast 523 602 37,000  Level FlightAware
09:45AM 36.3220 25.6390 115° Southeast 521 600 37,000  Level FlightAware
09:45AM 36.2860 25.7360 115° Southeast 520 598 37,000  Level FlightAware
09:46AM 36.2500 25.8310 115° Southeast 519 597 37,000  Level FlightAware
09:47AM 36.2160 25.9220 115° Southeast 519 597 37,000  Level FlightAware
09:47AM 36.1810 26.0170 115° Southeast 519 597 37,000  Level FlightAware
09:48AM 36.1430 26.1170 115° Southeast 519 597 37,000  Level FlightAware
09:48AM 36.1130 26.1970 115° Southeast 518 596 37,000  Level FlightAware
09:49AM 36.0730 26.2990 116° Southeast 517 595 37,000  Level FlightAware
09:49AM 36.0360 26.3980 115° Southeast 517 595 37,000  Level FlightAware
09:50AM 36.0000 26.4940 115° Southeast 518 596 37,000  Level FlightAware
09:51AM 35.9680 26.5770 115° Southeast 520 598 37,000  Level FlightAware
09:51AM 35.9300 26.6760 115° Southeast 521 600 37,000  Level FlightAware
09:52AM 35.8950 26.7650 116° Southeast 522 601 37,000  Level FlightAware
09:52AM 35.8600 26.8560 115° Southeast 523 602 37,000  Level FlightAware
09:53AM 35.8250 26.9450 116° Southeast 523 602 37,000  Level FlightAware
09:54AM 35.7920 27.0340 115° Southeast 524 603 37,000  Level FlightAware
09:54AM 35.7610 27.1170 115° Southeast 524 603 37,000  Level FlightAware
09:55AM 35.7070 27.2490 117° Southeast 525 604 37,000  Level FlightAware
09:55AM 35.6760 27.3320 115° Southeast 525 604 37,000  Level FlightAware
09:56AM 35.6440 27.4170 115° Southeast 525 604 37,000  Level FlightAware
09:57AM 35.6120 27.5000 115° Southeast 525 604 37,000  Level FlightAware
09:57AM 35.5810 27.5830 115° Southeast 525 604 37,000  Level FlightAware
09:58AM 35.5510 27.6610 115° Southeast 525 604 37,000  Level FlightAware
09:58AM 35.5200 27.7440 115° Southeast 525 604 37,000  Level FlightAware
09:59AM 35.4880 27.8270 115° Southeast 525 604 37,000  Level FlightAware
10:00AM 35.3980 28.0280 119° Southeast 522 601 37,000 -120 Level FlightAware
10:00AM 35.3590 28.1240 116° Southeast 524 603 36,900 -600 Descending FlightAware
10:01AM 35.3220 28.2170 116° Southeast 521 600 36,300 -1,140 Descending FlightAware
10:01AM 35.2880 28.3010 116° Southeast 520 598 35,700 -1,200 Descending FlightAware
10:02AM 35.2460 28.4070 116° Southeast 521 600 34,900 -1,080 Descending FlightAware
10:03AM 35.2090 28.4970 117° Southeast 520 598 34,400 -960 Descending FlightAware
10:03AM 35.1750 28.5780 117° Southeast 517 595 33,900 -660 Descending FlightAware
10:04AM 35.1280 28.6960 116° Southeast 517 595 33,500 -300 Descending FlightAware
10:05AM 35.0950 28.7780 116° Southeast 517 595 33,500 -420 Level FlightAware
10:05AM 35.0430 28.9030 117° Southeast 514 592 33,000 -420 Descending FlightAware
10:06AM 35.0060 28.9950 116° Southeast 513 590 33,000  Level FlightAware
10:06AM 34.9740 29.0740 116° Southeast 513 590 33,000  Level FlightAware
10:07AM 34.9420 29.1540 116° Southeast 513 590 33,000  Level FlightAware
10:08AM 34.9100 29.2340 116° Southeast 513 590 33,000  Level FlightAware
10:08AM 34.8770 29.3180 116° Southeast 513 590 33,000  Level FlightAware
10:09AM 34.8120 29.4580 119° Southeast 33,000  Level FlightAware
10:09AM 34.7750 29.5470 117° Southeast 508 585 33,000  Level FlightAware
10:10AM 34.7390 29.6330 117° Southeast 504 580 33,000  Level FlightAware
10:11AM 34.6990 29.7210 119° Southeast 502 578 33,000  Level FlightAware
10:11AM 34.6590 29.8050 120° Southeast 502 578 33,000  Level FlightAware
10:12AM 34.6050 29.9200 120° Southeast 503 579 33,000  Level FlightAware
10:13AM 34.5700 29.9960 119° Southeast 503 579 33,000  Level FlightAware
10:13AM 34.5350 30.0740 119° Southeast 503 579 33,000  Level FlightAware
10:14AM 34.4570 30.2310 121° Southeast 513 590 33,000  Level FlightAware
10:15AM 34.4160 30.3180 120° Southeast 513 590 33,000  Level FlightAware
10:15AM 34.3700 30.4150 120° Southeast 513 590 33,000  Level FlightAware
10:16AM 34.3220 30.5150 120° Southeast 513 590 33,000  Level FlightAware
10:16AM 34.2850 30.5920 120° Southeast 513 590 33,000  Level FlightAware
10:17AM 34.2430 30.6790 120° Southeast 513 590 33,000  Level FlightAware
10:18AM 34.2010 30.7650 121° Southeast 513 590 33,000  Level FlightAware
10:18AM 34.1580 30.8550 120° Southeast 512 589 33,000  Level FlightAware
10:19AM 34.1160 30.9430 120° Southeast 511 588 33,000  Level FlightAware
10:19AM 34.0740 31.0290 121° Southeast 509 586 33,000  Level FlightAware
10:20AM 34.0330 31.1150 120° Southeast 507 583 33,000  Level FlightAware
10:20AM 33.9910 31.2000 121° Southeast 507 583 33,000  Level FlightAware
10:21AM 33.9480 31.2880 120° Southeast 507 583 33,000  Level FlightAware
10:22AM 33.9130 31.3580 121° Southeast 507 583 33,000  Level FlightAware
10:22AM 33.8660 31.4550 120° Southeast 507 583 33,000  Level FlightAware
10:23AM 33.8220 31.5430 121° Southeast 506 582 33,000  Level FlightAware
10:23AM 33.7830 31.6250 120° Southeast 505 581 33,000  Level FlightAware
10:24AM 33.7400 31.7090 122° Southeast 505 581 33,000  Level FlightAware
10:25AM 33.6980 31.7940 121° Southeast 505 581 33,000  Level FlightAware
10:25AM 33.6550 31.8800 121° Southeast 504 580 33,000  Level FlightAware
10:26AM 33.6160 31.9600 120° Southeast 504 580 33,000  Level FlightAware
10:26AM 33.5730 32.0460 121° Southeast 505 581 33,000  Level FlightAware
10:27AM 33.5290 32.1350 121° Southeast 505 581 33,000  Level FlightAware
10:27AM 33.4920 32.2070 122° Southeast 507 583 33,000  Level FlightAware
10:28AM 33.4500 32.2910 121° Southeast 508 585 33,000 -180 Level FlightAware
10:29AM 33.4020 32.3860 121° Southeast 509 586 32,800 -900 Descending FlightAware
10:29AM 33.3640 32.4610 121° Southeast 517 595 32,000 -1,140 Descending FlightAware
10:30AM 33.3240 32.5400 121° Southeast 523 602 31,600 -840 Descending FlightAware
10:30AM 33.2680 32.6490 122° Southeast 515 593 31,000 -1,080 Descending FlightAware
10:31AM 33.2240 32.7370 121° Southeast 510 587 30,300 -1,140 Descending FlightAware
10:32AM 33.1870 32.8090 122° Southeast 510 587 29,800 -1,080 Descending FlightAware
10:32AM 33.1920 32.8000 304° West 507 583 28,800 -1,080 Descending FlightAware
10:33AM 33.0750 33.0280 121° Southeast 495 570 28,100 -1,260 Descending FlightAware
10:34AM 33.0270 33.1220 121° Southeast 487 560 27,100 -1,500 Descending FlightAware
10:34AM 32.9980 33.1790 121° Southeast 483 556 26,400 -1,800 Descending FlightAware
10:35AM 32.9290 33.3110 122° Southeast 465 535 24,700 -2,040 Descending FlightAware
10:36AM 32.8810 33.4040 122° Southeast 464 534 23,100 -2,160 Descending FlightAware
10:37AM 32.8380 33.4880 121° Southeast 453 521 21,800 -2,100 Descending FlightAware
10:37AM 32.8000 33.5610 122° Southeast 445 512 20,600 -2,340 Descending FlightAware
10:38AM 32.7630 33.6320 122° Southeast 437 503 19,200 -2,340 Descending FlightAware
10:38AM 32.7240 33.7030 123° Southeast 424 488 17,900 -2,160 Descending FlightAware
10:39AM 32.6820 33.7630 130° Southeast 409 471 16,700 -2,160 Descending FlightAware
10:39AM 32.6480 33.8140 128° Southeast 400 460 15,600 -2,340 Descending FlightAware
10:40AM 32.6000 33.8880 128° Southeast 392 451 13,900 -2,400 Descending FlightAware
10:41AM 32.5630 33.9460 127° Southeast 385 443 12,600 -2,160 Descending FlightAware
10:41AM 32.5260 34.0040 127° Southeast 378 435 11,400 -2,100 Descending FlightAware
10:42AM 32.4900 34.0610 127° Southeast 370 426 10,200 -1,560 Descending FlightAware
10:42AM 32.4510 34.1220 127° Southeast 371 427 9,500 -2,400 Descending FlightAware
10:43AM 32.4310 34.1520 128° Southeast 373 429 8,000 -2,940 Descending FlightAware
10:43AM 32.4070 34.1880 128° Southeast 372 428 7,700 -480 Descending FlightAware
10:44AM 32.3820 34.2290 126° Southeast 371 427 7,600 -240 Descending FlightAware
10:46AM 32.2527 34.5186 132° Southeast  Level FlightAware Approximate
10:47AM 32.1667 34.6456 90° East  Level FlightAware Approximate
10:48AM 32.0748 34.7690 133° Southeast  Level FlightAware Approximate
10:49AM 32.0000 34.8667 131° Southeast  Level FlightAware Approximate
10:50AM 32.0095 34.8769 131° Southeast  Level Estimated
10:51AM 32.0095 34.8769 131° Southeast  Level Estimated
10:52AM 32.0095 34.8769 131° Southeast  Level Estimated
10:53AM 32.0095 34.8769 131° Southeast  Level Estimated
10:54AM 32.0095 34.8769 131° Southeast  Level Estimated
10:55AM 32.0095 34.8769 131° Southeast  Level Estimated
10:56AM 32.0095 34.8769 131° Southeast  Level Estimated
10:57AM 32.0095 34.8769 131° Southeast  Level Estimated
10:58AM 32.0095 34.8769 131° Southeast  Level Estimated